createdAt,value
2019-05-19T00:09:48.590Z,24.4
2019-05-19T00:19:47.805Z,24.4
2019-05-19T00:29:47.015Z,24.4
2019-05-19T00:39:46.239Z,24.4
2019-05-19T00:49:45.452Z,24.4
2019-05-19T00:59:44.663Z,24.4
2019-05-19T01:09:43.884Z,24.4
2019-05-19T01:19:55.103Z,24.4
2019-05-19T01:29:42.314Z,24.4
2019-05-19T01:39:41.527Z,24.4
2019-05-19T01:49:40.787Z,24.3
2019-05-19T01:59:39.953Z,24.3
2019-05-19T02:09:39.176Z,24.3
2019-05-19T02:19:38.388Z,24.3
2019-05-19T02:29:37.598Z,24.3
2019-05-19T02:39:36.815Z,24.3
2019-05-19T02:49:36.035Z,24.3
2019-05-19T02:59:35.252Z,24.3
2019-05-19T03:09:34.467Z,24.3
2019-05-19T03:19:33.680Z,24.3
2019-05-19T03:29:32.897Z,24.2
2019-05-19T03:39:32.108Z,24.2
2019-05-19T03:49:31.319Z,24.2
2019-05-19T03:59:30.540Z,24.2
2019-05-19T04:09:29.756Z,24.2
2019-05-19T04:19:28.969Z,24.2
2019-05-19T04:29:28.176Z,24.2
2019-05-19T04:39:27.388Z,24.2
2019-05-19T04:49:26.604Z,24.2
2019-05-19T04:59:25.825Z,24.3
2019-05-19T05:09:25.032Z,24.3
2019-05-19T05:19:24.255Z,24.3
2019-05-19T05:29:23.463Z,24.2
2019-05-19T05:39:22.682Z,24.1
2019-05-19T05:49:21.949Z,24.1
2019-05-19T05:59:21.105Z,24.1
2019-05-19T06:09:20.320Z,23.9
2019-05-19T06:19:19.551Z,23.9
2019-05-19T06:29:18.753Z,23.9
2019-05-19T06:39:17.968Z,23.9
2019-05-19T06:49:17.193Z,23.9
2019-05-19T06:59:16.407Z,24
2019-05-19T07:09:15.630Z,24
2019-05-19T07:19:14.839Z,24
2019-05-19T07:29:14.049Z,24
2019-05-19T07:39:13.321Z,24.1
2019-05-19T07:49:12.484Z,24.1
2019-05-19T07:59:11.751Z,24.1
2019-05-19T08:09:10.926Z,24.1
2019-05-19T08:19:10.150Z,24.1
2019-05-19T08:29:09.415Z,24.1
2019-05-19T08:39:08.568Z,24.2
2019-05-19T08:49:07.796Z,24.1
2019-05-19T08:59:07.003Z,24.1
2019-05-19T09:09:06.224Z,24.1
2019-05-19T09:19:05.490Z,24.1
2019-05-19T09:29:04.649Z,24.1
2019-05-19T09:39:03.866Z,24.1
2019-05-19T09:49:03.090Z,24.1
2019-05-19T09:59:02.312Z,24.2
2019-05-19T10:09:01.570Z,24.2
2019-05-19T10:19:00.736Z,24.2
2019-05-19T10:28:59.964Z,24.2
2019-05-19T10:38:59.175Z,24.2
2019-05-19T10:48:58.390Z,24.2
2019-05-19T10:58:57.618Z,24.2
2019-05-19T11:08:56.829Z,24.3
2019-05-19T11:18:56.052Z,24.3
2019-05-19T11:28:55.266Z,24.4
2019-05-19T11:38:54.478Z,24.4
2019-05-19T11:48:53.700Z,24.6
2019-05-19T11:58:52.971Z,24.6
2019-05-19T12:08:52.146Z,24.6
2019-05-19T12:18:51.402Z,24.7
2019-05-19T12:28:50.572Z,24.8
2019-05-19T12:38:49.790Z,24.8
2019-05-19T12:48:49.002Z,24.9
2019-05-19T12:58:48.220Z,25.1
2019-05-19T13:08:47.490Z,25.1
2019-05-19T13:18:46.657Z,24.9
2019-05-19T13:28:45.872Z,24.9
2019-05-19T13:38:45.091Z,24.8
2019-05-19T13:48:44.307Z,24.8
2019-05-19T13:58:43.525Z,24.8
2019-05-19T14:08:42.753Z,24.7
2019-05-19T14:18:41.965Z,24.7
2019-05-19T14:28:41.231Z,24.6
2019-05-19T14:38:40.401Z,24.6
2019-05-19T14:48:39.678Z,24.6
2019-05-19T14:58:38.897Z,24.4
2019-05-19T15:08:38.066Z,24.4
2019-05-19T15:18:37.285Z,24.4
2019-05-19T15:28:36.501Z,24.3
2019-05-19T15:38:35.721Z,24.3
2019-05-19T15:48:34.950Z,24.2
2019-05-19T15:58:34.163Z,24.2
2019-05-19T16:08:33.382Z,24.2
2019-05-19T16:18:32.591Z,24.2
2019-05-19T16:28:31.869Z,24.2
2019-05-19T16:38:31.042Z,24.1
2019-05-19T16:48:30.316Z,24.2
2019-05-19T16:58:29.487Z,24.1
2019-05-19T17:08:28.712Z,24.2
2019-05-19T17:18:27.942Z,24.1
2019-05-19T17:28:27.170Z,24.1
2019-05-19T17:38:26.400Z,24.2
2019-05-19T17:48:26.844Z,24.2
2019-05-19T17:58:24.844Z,24.1
2019-05-19T18:08:24.066Z,24.1
2019-05-19T18:18:23.303Z,24.1
2019-05-19T18:28:22.505Z,24.1
2019-05-19T18:38:21.779Z,24.1
2019-05-19T18:48:23.276Z,24.1
2019-05-19T18:58:20.198Z,24
2019-05-19T19:08:19.389Z,24.1
2019-05-19T19:18:18.613Z,24.1
2019-05-19T19:28:17.836Z,24.2
2019-05-19T19:38:17.048Z,24.3
2019-05-19T19:48:16.271Z,24.4
2019-05-19T19:58:15.491Z,24.5
2019-05-19T20:08:14.714Z,24.6
2019-05-19T20:18:13.932Z,24.6
2019-05-19T20:28:13.153Z,24.5
2019-05-19T20:38:12.381Z,24.9
2019-05-19T20:48:11.661Z,25
2019-05-19T20:58:10.824Z,25
2019-05-19T21:10:01.277Z,24.9
2019-05-19T21:20:00.501Z,24.8
2019-05-19T21:29:59.714Z,24.8
2019-05-19T21:39:58.985Z,24.8
2019-05-19T21:49:58.159Z,24.8
2019-05-19T21:59:57.395Z,24.9
2019-05-19T22:09:56.711Z,24.9
2019-05-19T22:19:55.960Z,24.9
2019-05-19T22:29:55.274Z,24.9
2019-05-19T22:39:54.572Z,24.9
2019-05-19T22:49:53.879Z,24.9
2019-05-19T22:59:53.180Z,24.9
2019-05-19T23:09:52.406Z,24.9
2019-05-19T23:19:51.676Z,24.9
2019-05-19T23:29:50.867Z,24.9
2019-05-19T23:39:50.068Z,24.9
2019-05-19T23:49:49.367Z,24.9
2019-05-19T23:59:48.670Z,24.9
